Gerlaw, IL (61435)

1:54 PM CDT on August 21, 2014 (GMT -0500)
Galesburg Municipal | Change Station
CLOSE
Current Station
Airport
Location: Galesburg,
Elevation: 764 ft
Nearby Weather Stations

Elev 764 ft 40.94 °N, 90.43 °W | Updated 19 minutes ago

Overcast
Overcast
86 °F
Feels Like 95 °F
N
6
Wind Variable Wind from WSW

Today
High -- | Low -- °F
--% Chance of Precip.
Yesterday
High -- | Low -- °F
Precip. -- in
6:18 AM 7:52 PM
Waning Crescent, 13% visible
Pressure 29.95 in
Visibility 10.0 miles
Clouds Scattered Clouds 2700 ft
Overcast 3300 ft
Heat Index 95 °F
Dew Point 75 °F
Humidity 71%
Rainfall 0.29 in
Snow Depth Not available.
UV 3 out of 12
Pollen 8.10 out of 12
Air Quality Not available.
Flu Activity Not available.
METAR KGBG 211835Z AUTO 25005KT 10SM SCT027 OVC033 30/24 A2995 RMK AO2 T02990241

More Conditions Fewer Conditions

Pressure 29.95 in
Visibility 10.0 miles
Clouds Scattered Clouds 2700 ft
Overcast 3300 ft
Heat Index 95 °F
Dew Point 75 °F
Humidity 71%
Rainfall 0.29 in
Snow Depth Not available.
UV 3 out of 12
Pollen 8.10 out of 12
Air Quality Not available.
Flu Activity Not available.
METAR KGBG 211835Z AUTO 25005KT 10SM SCT027 OVC033 30/24 A2995 RMK AO2 T02990241

More Conditions Fewer Conditions

10-Day Weather Forecast

Almanac

Astronomy

Aug. 21, 2014 Rise Set
Actual Time 6:18 AM CDT 7:52 PM CDT
Civil Twilight 5:49 AM CDT 8:21 PM CDT
Nautical Twilight 5:14 AM CDT 8:56 PM CDT
Astronomical Twilight 4:36 AM CDT 9:33 PM CDT
Moon 2:47 AM CDT 5:21 PM CDT
Length of Visible Light 14h 31m
Length of Day
13h 33m
Tomorrow will be 2m 30s shorter.
Waning Crescent, 13% of the Moon is Illuminated
Today
Waning Crescent
Aug 25
New
Sep 2
First Quarter
Sep 8
Full
Sep 15
Last Quarter

Today's Extremes

State Highs State Lows

Community

WunderPhotos

Upload Photos

1,745,996 photos uploaded!

WunderBlogs® & News

Nearby

Snow Depth

Station Depth Elevation
No new snow has been reported.

Earthquake Activity

City Distance Mag. Time & Date
No recent earthquake activity has been reported nearby.
Minimum magnitude displayed is 2.5.

Coastal Water Temperatures

Place Temperature
No Stations Reporting

Nearby Weather Stations